Aviation Digital Data Service (ADDS)

Output produced by TAFs form (1334 UTC 29 September 2016)
found at http://aviationweather.gov/adds/tafs/
 
KMAF 291120Z 2912/3012 03011KT P6SM SKC 
     FM300100 10006KT P6SM FEW200